sensor_id;sensor_type;location;lat;lon;timestamp;temperature;humidity
52181;DHT22;38158;53.338;6.514;2023-07-24T00:01:09;16.90;99.90
52181;DHT22;38158;53.338;6.514;2023-07-24T00:03:35;17.00;99.90
52181;DHT22;38158;53.338;6.514;2023-07-24T00:06:01;16.90;99.90
52181;DHT22;38158;53.338;6.514;2023-07-24T00:08:27;16.90;99.90
52181;DHT22;38158;53.338;6.514;2023-07-24T00:10:53;16.90;99.90
52181;DHT22;38158;53.338;6.514;2023-07-24T00:13:18;16.90;99.90
52181;DHT22;38158;53.338;6.514;2023-07-24T00:15:44;16.90;99.90
52181;DHT22;38158;53.338;6.514;2023-07-24T00:18:10;16.90;99.90
52181;DHT22;38158;53.338;6.514;2023-07-24T00:20:36;16.90;99.90
52181;DHT22;38158;53.338;6.514;2023-07-24T00:23:01;16.80;99.90
52181;DHT22;38158;53.338;6.514;2023-07-24T00:25:27;16.90;99.90
52181;DHT22;38158;53.338;6.514;2023-07-24T00:27:53;16.80;99.90
52181;DHT22;38158;53.338;6.514;2023-07-24T00:30:19;16.90;99.90
52181;DHT22;38158;53.338;6.514;2023-07-24T00:32:44;16.90;99.90
52181;DHT22;38158;53.338;6.514;2023-07-24T00:35:10;16.90;99.90
52181;DHT22;38158;53.338;6.514;2023-07-24T00:37:36;16.80;99.90
52181;DHT22;38158;53.338;6.514;2023-07-24T00:40:03;16.90;99.90
52181;DHT22;38158;53.338;6.514;2023-07-24T00:42:29;16.80;99.90
52181;DHT22;38158;53.338;6.514;2023-07-24T00:44:55;16.80;99.90
52181;DHT22;38158;53.338;6.514;2023-07-24T00:47:21;16.80;99.90
52181;DHT22;38158;53.338;6.514;2023-07-24T00:49:48;16.90;99.90
52181;DHT22;38158;53.338;6.514;2023-07-24T00:52:15;16.80;99.90
52181;DHT22;38158;53.338;6.514;2023-07-24T00:54:41;16.90;99.90
52181;DHT22;38158;53.338;6.514;2023-07-24T00:57:08;16.90;99.90
52181;DHT22;38158;53.338;6.514;2023-07-24T00:59:34;16.80;99.90
52181;DHT22;38158;53.338;6.514;2023-07-24T01:02:01;16.80;99.90
52181;DHT22;38158;53.338;6.514;2023-07-24T01:04:26;16.70;99.90
52181;DHT22;38158;53.338;6.514;2023-07-24T01:06:52;16.70;99.90
52181;DHT22;38158;53.338;6.514;2023-07-24T01:09:19;16.60;99.90
52181;DHT22;38158;53.338;6.514;2023-07-24T01:11:52;16.60;99.90
52181;DHT22;38158;53.338;6.514;2023-07-24T01:14:29;16.60;99.90
52181;DHT22;38158;53.338;6.514;2023-07-24T01:16:58;16.50;99.90
52181;DHT22;38158;53.338;6.514;2023-07-24T01:19:47;16.50;99.90
52181;DHT22;38158;53.338;6.514;2023-07-24T01:27:27;16.40;99.90
52181;DHT22;38158;53.338;6.514;2023-07-24T01:29:52;16.40;99.90
52181;DHT22;38158;53.338;6.514;2023-07-24T01:32:21;16.40;99.90
52181;DHT22;38158;53.338;6.514;2023-07-24T01:34:48;16.40;99.90
52181;DHT22;38158;53.338;6.514;2023-07-24T01:37:13;16.40;99.90
52181;DHT22;38158;53.338;6.514;2023-07-24T01:39:44;16.40;99.90
52181;DHT22;38158;53.338;6.514;2023-07-24T01:42:10;16.40;99.90
52181;DHT22;38158;53.338;6.514;2023-07-24T01:44:36;16.40;99.90
52181;DHT22;38158;53.338;6.514;2023-07-24T01:47:01;16.30;99.90
52181;DHT22;38158;53.338;6.514;2023-07-24T01:49:27;16.30;99.90
52181;DHT22;38158;53.338;6.514;2023-07-24T01:51:53;16.30;99.90
52181;DHT22;38158;53.338;6.514;2023-07-24T01:54:18;16.20;99.90
52181;DHT22;38158;53.338;6.514;2023-07-24T01:56:44;16.20;99.90
52181;DHT22;38158;53.338;6.514;2023-07-24T01:59:10;16.20;99.90
52181;DHT22;38158;53.338;6.514;2023-07-24T02:01:35;16.20;99.90
52181;DHT22;38158;53.338;6.514;2023-07-24T02:04:02;16.20;99.90
52181;DHT22;38158;53.338;6.514;2023-07-24T02:06:27;16.10;99.90
52181;DHT22;38158;53.338;6.514;2023-07-24T02:08:53;16.10;99.90
52181;DHT22;38158;53.338;6.514;2023-07-24T02:11:19;16.10;99.90
52181;DHT22;38158;53.338;6.514;2023-07-24T02:13:45;16.10;99.90
52181;DHT22;38158;53.338;6.514;2023-07-24T02:16:11;16.10;99.90
52181;DHT22;38158;53.338;6.514;2023-07-24T02:18:38;16.10;99.90
52181;DHT22;38158;53.338;6.514;2023-07-24T02:21:04;16.10;99.90
52181;DHT22;38158;53.338;6.514;2023-07-24T02:23:29;16.10;99.90
52181;DHT22;38158;53.338;6.514;2023-07-24T02:25:55;16.10;99.90
52181;DHT22;38158;53.338;6.514;2023-07-24T02:28:21;16.10;99.90
52181;DHT22;38158;53.338;6.514;2023-07-24T02:30:47;16.10;99.90
52181;DHT22;38158;53.338;6.514;2023-07-24T02:33:13;16.10;99.90
52181;DHT22;38158;53.338;6.514;2023-07-24T02:35:40;16.10;99.90
52181;DHT22;38158;53.338;6.514;2023-07-24T02:38:06;16.10;99.90
52181;DHT22;38158;53.338;6.514;2023-07-24T02:40:33;16.10;99.90
52181;DHT22;38158;53.338;6.514;2023-07-24T02:42:59;16.20;99.90
52181;DHT22;38158;53.338;6.514;2023-07-24T02:45:25;16.20;99.90
52181;DHT22;38158;53.338;6.514;2023-07-24T02:47:51;16.20;99.90
52181;DHT22;38158;53.338;6.514;2023-07-24T02:50:16;16.20;99.90
52181;DHT22;38158;53.338;6.514;2023-07-24T02:52:42;16.20;99.90
52181;DHT22;38158;53.338;6.514;2023-07-24T02:55:08;16.10;99.90
52181;DHT22;38158;53.338;6.514;2023-07-24T02:57:33;16.20;99.90
52181;DHT22;38158;53.338;6.514;2023-07-24T02:59:59;16.20;99.90
52181;DHT22;38158;53.338;6.514;2023-07-24T03:02:25;16.20;99.90
52181;DHT22;38158;53.338;6.514;2023-07-24T03:04:51;16.20;99.90
52181;DHT22;38158;53.338;6.514;2023-07-24T03:07:16;16.10;99.90
52181;DHT22;38158;53.338;6.514;2023-07-24T03:09:42;16.20;99.90
52181;DHT22;38158;53.338;6.514;2023-07-24T03:12:08;16.20;99.90
52181;DHT22;38158;53.338;6.514;2023-07-24T03:14:34;16.20;99.90
52181;DHT22;38158;53.338;6.514;2023-07-24T03:16:59;16.20;99.90
52181;DHT22;38158;53.338;6.514;2023-07-24T03:19:25;16.20;99.90
52181;DHT22;38158;53.338;6.514;2023-07-24T03:21:51;16.20;99.90
52181;DHT22;38158;53.338;6.514;2023-07-24T03:24:17;16.20;99.90
52181;DHT22;38158;53.338;6.514;2023-07-24T03:26:43;16.20;99.90
52181;DHT22;38158;53.338;6.514;2023-07-24T03:29:09;16.20;99.90
52181;DHT22;38158;53.338;6.514;2023-07-24T03:31:34;16.20;99.90
52181;DHT22;38158;53.338;6.514;2023-07-24T03:34:00;16.20;99.90
52181;DHT22;38158;53.338;6.514;2023-07-24T03:36:26;16.20;99.90
52181;DHT22;38158;53.338;6.514;2023-07-24T03:38:51;16.20;99.90
52181;DHT22;38158;53.338;6.514;2023-07-24T03:41:17;16.20;99.90
52181;DHT22;38158;53.338;6.514;2023-07-24T03:43:43;16.20;99.90
52181;DHT22;38158;53.338;6.514;2023-07-24T03:46:08;16.30;99.90
52181;DHT22;38158;53.338;6.514;2023-07-24T03:48:34;16.30;99.90
52181;DHT22;38158;53.338;6.514;2023-07-24T03:51:03;16.30;99.90
52181;DHT22;38158;53.338;6.514;2023-07-24T03:53:28;16.30;99.90
52181;DHT22;38158;53.338;6.514;2023-07-24T03:55:54;16.30;99.90
52181;DHT22;38158;53.338;6.514;2023-07-24T03:58:20;16.30;99.90
52181;DHT22;38158;53.338;6.514;2023-07-24T04:00:46;16.30;99.90
52181;DHT22;38158;53.338;6.514;2023-07-24T04:03:12;16.40;99.90
52181;DHT22;38158;53.338;6.514;2023-07-24T04:05:37;16.40;99.90
52181;DHT22;38158;53.338;6.514;2023-07-24T04:08:03;16.40;99.90
52181;DHT22;38158;53.338;6.514;2023-07-24T04:10:29;16.40;99.90
52181;DHT22;38158;53.338;6.514;2023-07-24T04:12:56;16.40;99.90
52181;DHT22;38158;53.338;6.514;2023-07-24T04:15:23;16.40;99.90
52181;DHT22;38158;53.338;6.514;2023-07-24T04:17:49;16.40;99.90
52181;DHT22;38158;53.338;6.514;2023-07-24T04:20:14;16.40;99.90
52181;DHT22;38158;53.338;6.514;2023-07-24T04:22:40;16.40;99.90
52181;DHT22;38158;53.338;6.514;2023-07-24T04:25:06;16.40;99.90
52181;DHT22;38158;53.338;6.514;2023-07-24T04:27:32;16.40;99.90
52181;DHT22;38158;53.338;6.514;2023-07-24T04:29:58;16.40;99.90
52181;DHT22;38158;53.338;6.514;2023-07-24T04:32:26;16.40;99.90
52181;DHT22;38158;53.338;6.514;2023-07-24T04:34:52;16.40;99.90
52181;DHT22;38158;53.338;6.514;2023-07-24T04:37:18;16.40;99.90
52181;DHT22;38158;53.338;6.514;2023-07-24T04:39:43;16.40;99.90
52181;DHT22;38158;53.338;6.514;2023-07-24T04:42:09;16.40;99.90
52181;DHT22;38158;53.338;6.514;2023-07-24T04:44:35;16.50;99.90
52181;DHT22;38158;53.338;6.514;2023-07-24T04:47:01;16.50;99.90
52181;DHT22;38158;53.338;6.514;2023-07-24T04:49:31;16.50;99.90
52181;DHT22;38158;53.338;6.514;2023-07-24T04:51:58;16.50;99.90
52181;DHT22;38158;53.338;6.514;2023-07-24T04:54:24;16.50;99.90
52181;DHT22;38158;53.338;6.514;2023-07-24T04:56:50;16.50;99.90
52181;DHT22;38158;53.338;6.514;2023-07-24T04:59:16;16.50;99.90
52181;DHT22;38158;53.338;6.514;2023-07-24T05:01:42;16.50;99.90
52181;DHT22;38158;53.338;6.514;2023-07-24T05:04:08;16.50;99.90
52181;DHT22;38158;53.338;6.514;2023-07-24T05:06:33;16.50;99.90
52181;DHT22;38158;53.338;6.514;2023-07-24T05:09:01;16.50;99.90
52181;DHT22;38158;53.338;6.514;2023-07-24T05:11:27;16.50;99.90
52181;DHT22;38158;53.338;6.514;2023-07-24T05:13:53;16.50;99.90
52181;DHT22;38158;53.338;6.514;2023-07-24T05:16:19;16.60;99.90
52181;DHT22;38158;53.338;6.514;2023-07-24T05:18:44;16.60;99.90
52181;DHT22;38158;53.338;6.514;2023-07-24T05:21:10;16.60;99.90
52181;DHT22;38158;53.338;6.514;2023-07-24T05:23:36;16.60;99.90
52181;DHT22;38158;53.338;6.514;2023-07-24T05:26:03;16.60;99.90
52181;DHT22;38158;53.338;6.514;2023-07-24T05:28:29;16.70;99.90
52181;DHT22;38158;53.338;6.514;2023-07-24T05:30:55;16.60;99.90
52181;DHT22;38158;53.338;6.514;2023-07-24T05:33:21;16.70;99.90
52181;DHT22;38158;53.338;6.514;2023-07-24T05:35:48;16.70;99.90
52181;DHT22;38158;53.338;6.514;2023-07-24T05:38:15;16.70;99.90
52181;DHT22;38158;53.338;6.514;2023-07-24T05:40:40;16.70;99.90
52181;DHT22;38158;53.338;6.514;2023-07-24T05:43:06;16.70;99.90
52181;DHT22;38158;53.338;6.514;2023-07-24T05:45:32;16.80;99.90
52181;DHT22;38158;53.338;6.514;2023-07-24T05:47:57;16.80;99.90
52181;DHT22;38158;53.338;6.514;2023-07-24T05:50:23;16.80;99.90
52181;DHT22;38158;53.338;6.514;2023-07-24T05:52:48;16.80;99.90
52181;DHT22;38158;53.338;6.514;2023-07-24T05:55:14;16.80;99.90
52181;DHT22;38158;53.338;6.514;2023-07-24T05:57:40;16.80;99.90
52181;DHT22;38158;53.338;6.514;2023-07-24T06:00:06;16.80;99.90
52181;DHT22;38158;53.338;6.514;2023-07-24T06:02:32;16.80;99.90
52181;DHT22;38158;53.338;6.514;2023-07-24T06:04:58;16.80;99.90
52181;DHT22;38158;53.338;6.514;2023-07-24T06:07:24;16.80;99.90
52181;DHT22;38158;53.338;6.514;2023-07-24T06:09:50;16.80;99.90
52181;DHT22;38158;53.338;6.514;2023-07-24T06:12:15;16.80;99.90
52181;DHT22;38158;53.338;6.514;2023-07-24T06:14:41;16.80;99.90
52181;DHT22;38158;53.338;6.514;2023-07-24T06:17:07;16.80;99.90
52181;DHT22;38158;53.338;6.514;2023-07-24T06:19:32;16.90;99.90
52181;DHT22;38158;53.338;6.514;2023-07-24T06:21:58;16.90;99.90
52181;DHT22;38158;53.338;6.514;2023-07-24T06:24:24;17.00;99.90
52181;DHT22;38158;53.338;6.514;2023-07-24T06:26:50;17.10;99.90
52181;DHT22;38158;53.338;6.514;2023-07-24T06:29:16;17.10;99.90
52181;DHT22;38158;53.338;6.514;2023-07-24T06:31:42;17.20;99.90
52181;DHT22;38158;53.338;6.514;2023-07-24T06:34:07;17.30;99.90
52181;DHT22;38158;53.338;6.514;2023-07-24T06:36:33;17.40;99.90
52181;DHT22;38158;53.338;6.514;2023-07-24T06:38:59;17.50;99.90
52181;DHT22;38158;53.338;6.514;2023-07-24T06:41:25;17.50;99.90
52181;DHT22;38158;53.338;6.514;2023-07-24T06:43:51;17.50;99.90
52181;DHT22;38158;53.338;6.514;2023-07-24T06:46:17;17.60;99.90
52181;DHT22;38158;53.338;6.514;2023-07-24T06:48:42;17.60;99.90
52181;DHT22;38158;53.338;6.514;2023-07-24T06:51:08;17.60;99.90
52181;DHT22;38158;53.338;6.514;2023-07-24T06:53:34;17.70;99.90
52181;DHT22;38158;53.338;6.514;2023-07-24T06:56:00;17.70;99.90
52181;DHT22;38158;53.338;6.514;2023-07-24T06:58:25;17.80;99.90
52181;DHT22;38158;53.338;6.514;2023-07-24T07:00:51;17.90;99.90
52181;DHT22;38158;53.338;6.514;2023-07-24T07:03:16;17.90;99.90
52181;DHT22;38158;53.338;6.514;2023-07-24T07:05:42;18.00;99.90
52181;DHT22;38158;53.338;6.514;2023-07-24T07:08:08;18.10;99.90
52181;DHT22;38158;53.338;6.514;2023-07-24T07:10:34;18.20;99.90
52181;DHT22;38158;53.338;6.514;2023-07-24T07:12:59;18.30;99.90
52181;DHT22;38158;53.338;6.514;2023-07-24T07:15:25;18.30;99.90
52181;DHT22;38158;53.338;6.514;2023-07-24T07:17:51;18.40;99.90
52181;DHT22;38158;53.338;6.514;2023-07-24T07:20:16;18.40;99.90
52181;DHT22;38158;53.338;6.514;2023-07-24T07:22:42;18.40;99.90
52181;DHT22;38158;53.338;6.514;2023-07-24T07:25:08;18.50;99.90
52181;DHT22;38158;53.338;6.514;2023-07-24T07:27:34;18.50;99.90
52181;DHT22;38158;53.338;6.514;2023-07-24T07:29:59;18.60;99.90
52181;DHT22;38158;53.338;6.514;2023-07-24T07:32:25;18.60;99.90
52181;DHT22;38158;53.338;6.514;2023-07-24T07:34:52;18.70;99.90
52181;DHT22;38158;53.338;6.514;2023-07-24T07:37:18;18.80;99.90
52181;DHT22;38158;53.338;6.514;2023-07-24T07:39:44;18.80;99.90
52181;DHT22;38158;53.338;6.514;2023-07-24T07:42:09;18.80;99.90
52181;DHT22;38158;53.338;6.514;2023-07-24T07:44:35;18.80;99.90
52181;DHT22;38158;53.338;6.514;2023-07-24T07:47:01;19.00;99.90
52181;DHT22;38158;53.338;6.514;2023-07-24T07:49:26;19.00;99.90
52181;DHT22;38158;53.338;6.514;2023-07-24T07:51:52;19.10;99.90
52181;DHT22;38158;53.338;6.514;2023-07-24T07:54:18;19.10;99.90
52181;DHT22;38158;53.338;6.514;2023-07-24T07:56:44;19.20;99.90
52181;DHT22;38158;53.338;6.514;2023-07-24T07:59:09;19.30;99.90
52181;DHT22;38158;53.338;6.514;2023-07-24T08:01:38;19.30;99.90
52181;DHT22;38158;53.338;6.514;2023-07-24T08:04:07;19.30;99.90
52181;DHT22;38158;53.338;6.514;2023-07-24T08:06:33;19.40;99.90
52181;DHT22;38158;53.338;6.514;2023-07-24T08:08:59;19.60;99.90
52181;DHT22;38158;53.338;6.514;2023-07-24T08:11:24;19.70;99.90
52181;DHT22;38158;53.338;6.514;2023-07-24T08:13:50;19.90;99.90
52181;DHT22;38158;53.338;6.514;2023-07-24T08:16:16;19.90;99.90
52181;DHT22;38158;53.338;6.514;2023-07-24T08:18:48;19.90;99.90
52181;DHT22;38158;53.338;6.514;2023-07-24T08:21:14;19.90;99.90
52181;DHT22;38158;53.338;6.514;2023-07-24T08:23:40;19.90;99.90
52181;DHT22;38158;53.338;6.514;2023-07-24T08:26:06;19.80;99.90
52181;DHT22;38158;53.338;6.514;2023-07-24T08:28:33;19.70;99.90
52181;DHT22;38158;53.338;6.514;2023-07-24T08:31:01;19.70;99.90
52181;DHT22;38158;53.338;6.514;2023-07-24T08:33:28;19.70;99.90
52181;DHT22;38158;53.338;6.514;2023-07-24T08:36:00;19.70;99.90
52181;DHT22;38158;53.338;6.514;2023-07-24T08:38:26;19.70;99.90
52181;DHT22;38158;53.338;6.514;2023-07-24T08:41:01;19.80;99.90
52181;DHT22;38158;53.338;6.514;2023-07-24T08:43:29;19.80;99.90
52181;DHT22;38158;53.338;6.514;2023-07-24T08:45:57;19.80;99.90
52181;DHT22;38158;53.338;6.514;2023-07-24T08:48:24;19.80;99.90
52181;DHT22;38158;53.338;6.514;2023-07-24T08:50:51;19.90;99.90
52181;DHT22;38158;53.338;6.514;2023-07-24T08:53:19;19.90;99.90
52181;DHT22;38158;53.338;6.514;2023-07-24T08:55:48;19.90;99.90
52181;DHT22;38158;53.338;6.514;2023-07-24T08:58:15;19.90;99.90
52181;DHT22;38158;53.338;6.514;2023-07-24T09:00:41;19.90;99.90
52181;DHT22;38158;53.338;6.514;2023-07-24T09:03:06;19.90;99.90
52181;DHT22;38158;53.338;6.514;2023-07-24T09:05:33;20.10;99.90
52181;DHT22;38158;53.338;6.514;2023-07-24T09:07:58;20.10;99.90
52181;DHT22;38158;53.338;6.514;2023-07-24T09:10:27;20.10;99.90
52181;DHT22;38158;53.338;6.514;2023-07-24T09:12:54;20.20;99.90
52181;DHT22;38158;53.338;6.514;2023-07-24T09:15:20;20.20;99.90
52181;DHT22;38158;53.338;6.514;2023-07-24T09:17:50;20.10;99.90
52181;DHT22;38158;53.338;6.514;2023-07-24T09:20:16;20.10;99.90
52181;DHT22;38158;53.338;6.514;2023-07-24T09:22:53;20.10;99.90
52181;DHT22;38158;53.338;6.514;2023-07-24T09:25:30;20.10;99.90
52181;DHT22;38158;53.338;6.514;2023-07-24T09:27:58;20.00;99.90
52181;DHT22;38158;53.338;6.514;2023-07-24T09:30:23;20.10;99.90
52181;DHT22;38158;53.338;6.514;2023-07-24T09:32:54;20.10;99.90
52181;DHT22;38158;53.338;6.514;2023-07-24T09:35:21;20.20;99.90
52181;DHT22;38158;53.338;6.514;2023-07-24T09:38:10;20.50;99.90
52181;DHT22;38158;53.338;6.514;2023-07-24T09:40:41;20.80;99.90
52181;DHT22;38158;53.338;6.514;2023-07-24T09:43:24;21.00;99.90
52181;DHT22;38158;53.338;6.514;2023-07-24T09:45:51;21.00;99.90
52181;DHT22;38158;53.338;6.514;2023-07-24T09:48:18;20.80;99.90
52181;DHT22;38158;53.338;6.514;2023-07-24T09:50:48;20.70;99.90
52181;DHT22;38158;53.338;6.514;2023-07-24T09:56:08;21.10;99.90
52181;DHT22;38158;53.338;6.514;2023-07-24T09:58:37;21.30;99.90
52181;DHT22;38158;53.338;6.514;2023-07-24T10:15:10;21.30;99.90
52181;DHT22;38158;53.338;6.514;2023-07-24T10:48:50;19.20;99.90
52181;DHT22;38158;53.338;6.514;2023-07-24T10:51:47;19.40;99.90
52181;DHT22;38158;53.338;6.514;2023-07-24T11:02:07;19.40;99.90
52181;DHT22;38158;53.338;6.514;2023-07-24T11:08:36;19.70;99.90
52181;DHT22;38158;53.338;6.514;2023-07-24T11:20:55;19.70;99.90
52181;DHT22;38158;53.338;6.514;2023-07-24T12:00:24;20.20;99.90
52181;DHT22;38158;53.338;6.514;2023-07-24T12:03:22;20.00;99.90
52181;DHT22;38158;53.338;6.514;2023-07-24T12:08:32;19.90;99.90
52181;DHT22;38158;53.338;6.514;2023-07-24T12:10:58;19.90;99.90
52181;DHT22;38158;53.338;6.514;2023-07-24T12:13:24;20.00;99.90
52181;DHT22;38158;53.338;6.514;2023-07-24T12:15:49;19.90;99.90
52181;DHT22;38158;53.338;6.514;2023-07-24T12:18:15;19.90;99.90
52181;DHT22;38158;53.338;6.514;2023-07-24T12:20:41;19.80;99.90
52181;DHT22;38158;53.338;6.514;2023-07-24T12:23:07;19.70;99.90
52181;DHT22;38158;53.338;6.514;2023-07-24T12:25:32;19.70;99.90
52181;DHT22;38158;53.338;6.514;2023-07-24T12:27:58;19.60;99.90
52181;DHT22;38158;53.338;6.514;2023-07-24T12:30:24;19.50;99.90
52181;DHT22;38158;53.338;6.514;2023-07-24T12:32:49;19.50;99.90
52181;DHT22;38158;53.338;6.514;2023-07-24T12:35:16;19.40;99.90
52181;DHT22;38158;53.338;6.514;2023-07-24T12:37:43;19.40;99.90
52181;DHT22;38158;53.338;6.514;2023-07-24T12:40:09;19.40;99.90
52181;DHT22;38158;53.338;6.514;2023-07-24T12:42:35;19.40;99.90
52181;DHT22;38158;53.338;6.514;2023-07-24T12:45:01;19.40;99.90
52181;DHT22;38158;53.338;6.514;2023-07-24T12:47:30;19.30;99.90
52181;DHT22;38158;53.338;6.514;2023-07-24T12:49:56;19.20;99.90
52181;DHT22;38158;53.338;6.514;2023-07-24T12:52:23;19.10;99.90
52181;DHT22;38158;53.338;6.514;2023-07-24T12:54:50;19.00;99.90
52181;DHT22;38158;53.338;6.514;2023-07-24T12:57:15;18.90;99.90
52181;DHT22;38158;53.338;6.514;2023-07-24T12:59:41;18.80;99.90
52181;DHT22;38158;53.338;6.514;2023-07-24T13:02:07;18.80;99.90
52181;DHT22;38158;53.338;6.514;2023-07-24T13:04:32;18.80;99.90
52181;DHT22;38158;53.338;6.514;2023-07-24T13:06:58;18.70;99.90
52181;DHT22;38158;53.338;6.514;2023-07-24T13:09:25;18.70;99.90
52181;DHT22;38158;53.338;6.514;2023-07-24T13:11:51;18.70;99.90
52181;DHT22;38158;53.338;6.514;2023-07-24T13:14:20;18.70;99.90
52181;DHT22;38158;53.338;6.514;2023-07-24T13:16:45;18.70;99.90
52181;DHT22;38158;53.338;6.514;2023-07-24T13:19:11;18.70;99.90
52181;DHT22;38158;53.338;6.514;2023-07-24T13:21:37;18.70;99.90
52181;DHT22;38158;53.338;6.514;2023-07-24T13:24:03;18.80;99.90
52181;DHT22;38158;53.338;6.514;2023-07-24T13:26:28;18.90;99.90
52181;DHT22;38158;53.338;6.514;2023-07-24T13:28:54;18.90;99.90
52181;DHT22;38158;53.338;6.514;2023-07-24T13:31:20;19.00;99.90
52181;DHT22;38158;53.338;6.514;2023-07-24T13:33:48;19.20;99.90
52181;DHT22;38158;53.338;6.514;2023-07-24T13:36:13;19.40;99.90
52181;DHT22;38158;53.338;6.514;2023-07-24T13:38:40;19.50;99.90
52181;DHT22;38158;53.338;6.514;2023-07-24T13:41:06;19.60;99.90
52181;DHT22;38158;53.338;6.514;2023-07-24T13:43:32;19.80;99.90
52181;DHT22;38158;53.338;6.514;2023-07-24T13:45:58;20.10;99.90
52181;DHT22;38158;53.338;6.514;2023-07-24T13:48:26;20.00;99.90
52181;DHT22;38158;53.338;6.514;2023-07-24T13:50:52;19.60;99.90
52181;DHT22;38158;53.338;6.514;2023-07-24T13:53:18;19.20;99.90
52181;DHT22;38158;53.338;6.514;2023-07-24T13:55:44;19.00;99.90
52181;DHT22;38158;53.338;6.514;2023-07-24T13:58:10;18.80;99.90
52181;DHT22;38158;53.338;6.514;2023-07-24T14:00:35;18.60;99.90
52181;DHT22;38158;53.338;6.514;2023-07-24T14:03:01;18.30;99.90
52181;DHT22;38158;53.338;6.514;2023-07-24T14:05:27;18.20;99.90
52181;DHT22;38158;53.338;6.514;2023-07-24T14:07:54;18.00;99.90
52181;DHT22;38158;53.338;6.514;2023-07-24T14:10:19;17.70;99.90
52181;DHT22;38158;53.338;6.514;2023-07-24T14:12:45;17.50;99.90
52181;DHT22;38158;53.338;6.514;2023-07-24T14:15:12;17.40;99.90
52181;DHT22;38158;53.338;6.514;2023-07-24T14:17:37;17.20;99.90
52181;DHT22;38158;53.338;6.514;2023-07-24T14:20:04;17.20;99.90
52181;DHT22;38158;53.338;6.514;2023-07-24T14:22:30;17.20;99.90
52181;DHT22;38158;53.338;6.514;2023-07-24T14:24:56;17.20;99.90
52181;DHT22;38158;53.338;6.514;2023-07-24T14:27:22;17.10;99.90
52181;DHT22;38158;53.338;6.514;2023-07-24T14:29:47;17.10;99.90
52181;DHT22;38158;53.338;6.514;2023-07-24T14:32:13;17.20;99.90
52181;DHT22;38158;53.338;6.514;2023-07-24T14:34:41;17.10;99.90
52181;DHT22;38158;53.338;6.514;2023-07-24T14:37:06;17.10;99.90
52181;DHT22;38158;53.338;6.514;2023-07-24T14:39:32;17.00;99.90
52181;DHT22;38158;53.338;6.514;2023-07-24T14:41:58;16.90;99.90
52181;DHT22;38158;53.338;6.514;2023-07-24T14:44:24;16.80;99.90
52181;DHT22;38158;53.338;6.514;2023-07-24T14:46:50;16.80;99.90
52181;DHT22;38158;53.338;6.514;2023-07-24T14:49:15;16.70;99.90
52181;DHT22;38158;53.338;6.514;2023-07-24T14:51:41;16.80;99.90
52181;DHT22;38158;53.338;6.514;2023-07-24T14:54:07;17.00;99.90
52181;DHT22;38158;53.338;6.514;2023-07-24T14:56:32;16.90;99.90
52181;DHT22;38158;53.338;6.514;2023-07-24T14:58:59;16.90;99.90
52181;DHT22;38158;53.338;6.514;2023-07-24T15:01:26;16.80;99.90
52181;DHT22;38158;53.338;6.514;2023-07-24T15:03:55;16.60;99.90
52181;DHT22;38158;53.338;6.514;2023-07-24T15:06:21;16.50;99.90
52181;DHT22;38158;53.338;6.514;2023-07-24T15:08:47;16.50;99.90
52181;DHT22;38158;53.338;6.514;2023-07-24T15:11:12;16.40;99.90
52181;DHT22;38158;53.338;6.514;2023-07-24T15:13:38;16.60;99.90
52181;DHT22;38158;53.338;6.514;2023-07-24T15:16:04;16.70;99.90
52181;DHT22;38158;53.338;6.514;2023-07-24T15:18:30;16.80;99.90
52181;DHT22;38158;53.338;6.514;2023-07-24T15:20:56;16.30;99.90
52181;DHT22;38158;53.338;6.514;2023-07-24T15:23:23;16.80;99.90
52181;DHT22;38158;53.338;6.514;2023-07-24T15:25:48;16.90;99.90
52181;DHT22;38158;53.338;6.514;2023-07-24T15:28:14;16.90;99.90
52181;DHT22;38158;53.338;6.514;2023-07-24T15:30:40;16.90;99.90
52181;DHT22;38158;53.338;6.514;2023-07-24T15:33:06;16.90;99.90
52181;DHT22;38158;53.338;6.514;2023-07-24T15:35:31;16.70;99.90
52181;DHT22;38158;53.338;6.514;2023-07-24T15:37:57;16.70;99.90
52181;DHT22;38158;53.338;6.514;2023-07-24T15:40:23;16.70;99.90
52181;DHT22;38158;53.338;6.514;2023-07-24T15:42:48;16.80;99.90
52181;DHT22;38158;53.338;6.514;2023-07-24T15:45:14;16.80;99.90
52181;DHT22;38158;53.338;6.514;2023-07-24T15:47:40;16.70;99.90
52181;DHT22;38158;53.338;6.514;2023-07-24T15:50:06;16.70;99.90
52181;DHT22;38158;53.338;6.514;2023-07-24T15:52:31;16.60;99.90
52181;DHT22;38158;53.338;6.514;2023-07-24T15:54:57;16.60;99.90
52181;DHT22;38158;53.338;6.514;2023-07-24T15:57:23;16.50;99.90
52181;DHT22;38158;53.338;6.514;2023-07-24T15:59:49;16.40;99.90
52181;DHT22;38158;53.338;6.514;2023-07-24T16:02:14;16.40;99.90
52181;DHT22;38158;53.338;6.514;2023-07-24T16:04:40;16.40;99.90
52181;DHT22;38158;53.338;6.514;2023-07-24T16:07:06;16.40;99.90
52181;DHT22;38158;53.338;6.514;2023-07-24T16:09:32;16.30;99.90
52181;DHT22;38158;53.338;6.514;2023-07-24T16:11:57;16.30;99.90
52181;DHT22;38158;53.338;6.514;2023-07-24T16:14:23;16.20;99.90
52181;DHT22;38158;53.338;6.514;2023-07-24T16:16:49;16.20;99.90
52181;DHT22;38158;53.338;6.514;2023-07-24T16:19:19;16.20;99.90
52181;DHT22;38158;53.338;6.514;2023-07-24T16:21:47;16.20;99.90
52181;DHT22;38158;53.338;6.514;2023-07-24T16:24:14;16.20;99.90
52181;DHT22;38158;53.338;6.514;2023-07-24T16:26:44;16.20;99.90
52181;DHT22;38158;53.338;6.514;2023-07-24T16:29:10;16.20;99.90
52181;DHT22;38158;53.338;6.514;2023-07-24T16:31:35;16.30;99.90
52181;DHT22;38158;53.338;6.514;2023-07-24T16:34:01;16.30;99.90
52181;DHT22;38158;53.338;6.514;2023-07-24T16:36:27;16.30;99.90
52181;DHT22;38158;53.338;6.514;2023-07-24T16:38:53;16.30;99.90
52181;DHT22;38158;53.338;6.514;2023-07-24T16:41:18;16.30;99.90
52181;DHT22;38158;53.338;6.514;2023-07-24T16:43:44;16.30;99.90
52181;DHT22;38158;53.338;6.514;2023-07-24T16:46:10;16.30;99.90
52181;DHT22;38158;53.338;6.514;2023-07-24T16:48:36;16.40;99.90
52181;DHT22;38158;53.338;6.514;2023-07-24T16:51:02;16.40;99.90
52181;DHT22;38158;53.338;6.514;2023-07-24T16:53:28;16.50;99.90
52181;DHT22;38158;53.338;6.514;2023-07-24T16:55:54;16.50;99.90
52181;DHT22;38158;53.338;6.514;2023-07-24T16:58:19;16.60;99.90
52181;DHT22;38158;53.338;6.514;2023-07-24T17:00:45;16.50;99.90
52181;DHT22;38158;53.338;6.514;2023-07-24T17:03:11;16.40;99.90
52181;DHT22;38158;53.338;6.514;2023-07-24T17:05:37;16.40;99.90
52181;DHT22;38158;53.338;6.514;2023-07-24T17:08:02;16.30;99.90
52181;DHT22;38158;53.338;6.514;2023-07-24T17:10:39;16.20;99.90
52181;DHT22;38158;53.338;6.514;2023-07-24T17:13:05;16.20;99.90
52181;DHT22;38158;53.338;6.514;2023-07-24T17:15:31;16.20;99.90
52181;DHT22;38158;53.338;6.514;2023-07-24T17:17:56;16.20;99.90
52181;DHT22;38158;53.338;6.514;2023-07-24T17:20:22;16.20;99.90